createdAt,value
2022-08-22T00:01:37.371Z,14.8
2022-08-22T00:02:43.620Z,17.2
2022-08-22T00:06:37.602Z,14.8
2022-08-22T00:11:37.802Z,14.6
2022-08-22T00:16:38.002Z,14.4
2022-08-22T00:21:38.207Z,14.4
2022-08-22T00:26:45.110Z,14.5
2022-08-22T00:31:38.672Z,14.5
2022-08-22T00:36:38.830Z,14.5
2022-08-22T00:41:39.092Z,14.6
2022-08-22T00:51:39.478Z,14.4
2022-08-22T00:56:39.687Z,14.4
2022-08-22T01:01:39.925Z,14.3
2022-08-22T01:06:40.068Z,14.1
2022-08-22T01:11:40.234Z,14.0
2022-08-22T01:16:40.369Z,13.9
2022-08-22T01:21:40.526Z,13.8
2022-08-22T01:26:40.657Z,13.8
2022-08-22T01:31:40.825Z,13.7
2022-08-22T01:36:40.909Z,13.6
2022-08-22T01:41:41.070Z,13.6
2022-08-22T01:46:41.193Z,13.7
2022-08-22T01:51:41.429Z,13.8
2022-08-22T01:56:41.547Z,13.9
2022-08-22T02:01:41.721Z,13.9
2022-08-22T02:06:41.843Z,13.8
2022-08-22T02:11:41.994Z,13.8
2022-08-22T02:16:42.127Z,13.8
2022-08-22T02:21:42.368Z,13.8
2022-08-22T02:26:42.365Z,13.8
2022-08-22T02:31:42.538Z,13.6
2022-08-22T02:36:42.684Z,13.4
2022-08-22T02:41:42.819Z,13.4
2022-08-22T02:46:42.989Z,13.4
2022-08-22T02:51:43.174Z,13.4
2022-08-22T02:56:43.298Z,13.6
2022-08-22T03:01:43.458Z,13.7
2022-08-22T03:06:43.625Z,13.7
2022-08-22T03:11:43.808Z,13.7
2022-08-22T03:16:43.996Z,13.5
2022-08-22T03:21:44.186Z,13.5
2022-08-22T03:26:44.357Z,13.4
2022-08-22T03:31:46.521Z,13.5
2022-08-22T03:36:44.674Z,13.5
2022-08-22T03:41:44.842Z,13.6
2022-08-22T03:46:45.045Z,13.6
2022-08-22T03:56:45.413Z,13.8
2022-08-22T04:06:45.753Z,13.6
2022-08-22T04:11:45.918Z,13.5
2022-08-22T04:16:46.090Z,13.5
2022-08-22T04:21:46.282Z,13.5
2022-08-22T04:26:46.480Z,13.5
2022-08-22T04:31:46.668Z,13.6
2022-08-22T04:41:46.934Z,13.7
2022-08-22T04:46:47.091Z,13.7
2022-08-22T04:51:49.396Z,13.8
2022-08-22T04:56:47.431Z,13.8
2022-08-22T05:01:47.627Z,13.8
2022-08-22T05:11:47.946Z,14.0
2022-08-22T05:16:48.113Z,14.1
2022-08-22T05:21:48.253Z,14.2
2022-08-22T05:26:48.451Z,14.2
2022-08-22T05:31:50.643Z,14.4
2022-08-22T05:41:49.019Z,14.6
2022-08-22T05:46:51.197Z,14.6
2022-08-22T05:51:49.416Z,14.7
2022-08-22T05:56:49.614Z,14.8
2022-08-22T06:06:50.026Z,15.1
2022-08-22T06:11:50.273Z,15.2
2022-08-22T06:16:50.455Z,15.4
2022-08-22T06:21:50.681Z,15.6
2022-08-22T06:26:50.965Z,15.8
2022-08-22T06:31:51.190Z,15.8
2022-08-22T06:36:51.415Z,15.8
2022-08-22T06:41:51.619Z,16.2
2022-08-22T06:46:51.901Z,16.4
2022-08-22T06:51:52.103Z,16.5
2022-08-22T06:56:52.293Z,16.9
2022-08-22T07:01:52.624Z,17.0
2022-08-22T07:06:52.878Z,17.1
2022-08-22T07:11:53.360Z,17.1
2022-08-22T07:16:53.408Z,17.3
2022-08-22T07:26:53.997Z,18.0
2022-08-22T07:31:54.273Z,18.4
2022-08-22T07:36:54.544Z,18.8
2022-08-22T07:41:54.890Z,18.9
2022-08-22T07:46:55.212Z,18.7
2022-08-22T07:51:55.544Z,18.7
2022-08-22T07:56:55.874Z,19.0
2022-08-22T08:01:56.246Z,19.6
2022-08-22T08:06:56.573Z,20.0
2022-08-22T08:11:56.953Z,20.4
2022-08-22T08:16:57.341Z,20.4
2022-08-22T08:21:57.730Z,20.6
2022-08-22T08:26:58.095Z,20.7
2022-08-22T08:31:58.588Z,20.8
2022-08-22T08:36:58.987Z,21.1
2022-08-22T08:41:59.382Z,21.2
2022-08-22T08:46:59.829Z,21.1
2022-08-22T08:52:00.282Z,21.4
2022-08-22T08:57:00.757Z,21.6
2022-08-22T09:02:01.373Z,21.6
2022-08-22T09:07:01.761Z,21.2
2022-08-22T09:17:02.663Z,21.3
2022-08-22T09:22:03.190Z,21.4
2022-08-22T09:27:03.642Z,21.6
2022-08-22T09:32:04.070Z,21.6
2022-08-22T09:37:04.521Z,21.8
2022-08-22T09:42:04.976Z,21.7
2022-08-22T09:47:05.434Z,21.5
2022-08-22T09:52:15.402Z,21.6
2022-08-22T09:57:06.497Z,21.9
2022-08-22T10:02:15.383Z,21.9
2022-08-22T10:07:11.702Z,22.1
2022-08-22T10:12:12.772Z,22.4
2022-08-22T10:17:08.447Z,22.1
2022-08-22T10:22:09.007Z,22.1
2022-08-22T10:27:09.430Z,21.9
2022-08-22T10:32:10.698Z,21.6
2022-08-22T10:37:10.409Z,21.4
2022-08-22T10:42:10.877Z,21.6
2022-08-22T10:47:11.279Z,21.8
2022-08-22T10:52:15.495Z,21.8
2022-08-22T10:57:12.218Z,21.8
2022-08-22T11:02:12.707Z,21.7
2022-08-22T11:07:13.179Z,21.5
2022-08-22T11:12:15.594Z,21.4
2022-08-22T11:17:30.917Z,21.2
2022-08-22T11:22:14.527Z,21.1
2022-08-22T11:27:14.956Z,21.0
2022-08-22T11:32:15.523Z,21.3
2022-08-22T11:37:15.858Z,21.8
2022-08-22T11:42:16.309Z,21.9
2022-08-22T11:47:16.777Z,22.1
2022-08-22T11:52:17.234Z,22.0
2022-08-22T11:57:17.602Z,22.4
2022-08-22T12:02:18.115Z,22.6
2022-08-22T12:07:18.754Z,22.8
2022-08-22T12:12:19.218Z,22.7
2022-08-22T12:17:50.602Z,22.8
2022-08-22T12:22:20.264Z,22.5
2022-08-22T12:27:28.989Z,22.5
2022-08-22T12:32:26.298Z,22.5
2022-08-22T12:37:21.747Z,22.0
2022-08-22T12:42:22.234Z,22.0
2022-08-22T12:47:22.730Z,21.9
2022-08-22T12:52:23.238Z,21.9
2022-08-22T12:57:25.091Z,21.8
2022-08-22T13:02:24.172Z,22.1
2022-08-22T13:07:24.654Z,22.3
2022-08-22T13:12:25.192Z,22.9
2022-08-22T13:17:25.816Z,23.1
2022-08-22T13:22:26.120Z,22.5
2022-08-22T13:27:27.031Z,21.9
2022-08-22T13:32:27.803Z,21.9
2022-08-22T13:37:27.629Z,22.3
2022-08-22T13:42:30.844Z,22.1
2022-08-22T13:47:31.762Z,22.0
2022-08-22T13:52:30.289Z,21.8
2022-08-22T13:57:29.492Z,21.8
2022-08-22T14:02:31.090Z,21.7
2022-08-22T14:07:30.441Z,21.9
2022-08-22T14:12:33.310Z,21.4
2022-08-22T14:17:31.339Z,21.4
2022-08-22T14:22:35.110Z,21.6
2022-08-22T14:27:32.258Z,21.5
2022-08-22T14:32:35.238Z,22.4
2022-08-22T14:37:33.199Z,22.8
2022-08-22T14:47:55.267Z,22.9
2022-08-22T14:52:34.717Z,22.9
2022-08-22T14:57:35.235Z,23.1
2022-08-22T15:02:35.748Z,22.8
2022-08-22T15:07:36.291Z,22.4
2022-08-22T15:12:38.764Z,22.2
2022-08-22T15:17:37.385Z,22.2
2022-08-22T15:22:37.793Z,22.1
2022-08-22T15:27:39.043Z,21.8
2022-08-22T15:32:42.042Z,22.3
2022-08-22T15:37:41.515Z,22.6
2022-08-22T15:42:39.874Z,22.4
2022-08-22T15:47:40.409Z,22.2
2022-08-22T15:52:42.078Z,22.1
2022-08-22T15:57:41.431Z,22.4
2022-08-22T16:02:41.885Z,22.5
2022-08-22T16:07:42.356Z,22.0
2022-08-22T16:12:42.806Z,21.7
2022-08-22T16:17:43.279Z,22.1
2022-08-22T16:22:47.294Z,21.8
2022-08-22T16:27:44.531Z,21.4
2022-08-22T16:32:44.883Z,21.4
2022-08-22T16:37:45.316Z,21.4
2022-08-22T16:42:45.609Z,21.1
2022-08-22T16:47:52.792Z,21.2
2022-08-22T16:52:46.519Z,21.0
2022-08-22T16:58:05.098Z,20.7
2022-08-22T17:02:49.391Z,20.4
2022-08-22T17:07:47.841Z,20.2
2022-08-22T17:12:48.284Z,20.0
2022-08-22T17:17:48.651Z,20.1
2022-08-22T17:22:49.104Z,20.3
2022-08-22T17:27:49.523Z,20.0
2022-08-22T17:32:59.015Z,19.9
2022-08-22T17:37:50.234Z,20.2
2022-08-22T17:47:51.117Z,20.1
2022-08-22T17:52:51.527Z,20.1
2022-08-22T17:57:51.994Z,20.3
2022-08-22T18:02:52.300Z,20.2
2022-08-22T18:07:52.729Z,19.9
2022-08-22T18:12:53.134Z,20.0
2022-08-22T18:22:54.030Z,20.1
2022-08-22T18:27:54.435Z,20.2
2022-08-22T18:32:54.693Z,20.1
2022-08-22T18:37:55.096Z,20.1
2022-08-22T18:42:55.683Z,20.1
2022-08-22T18:47:55.895Z,20.2
2022-08-22T18:52:57.547Z,20.1
2022-08-22T18:57:56.661Z,20.3
2022-08-22T19:02:57.084Z,20.3
2022-08-22T19:07:57.436Z,20.4
2022-08-22T19:17:59.522Z,20.3
2022-08-22T19:23:00.727Z,20.3
2022-08-22T19:27:58.982Z,20.2
2022-08-22T19:32:59.661Z,20.1
2022-08-22T19:37:59.859Z,19.9
2022-08-22T19:43:00.465Z,19.9
2022-08-22T19:48:00.662Z,19.8
2022-08-22T19:53:02.975Z,19.9
2022-08-22T19:55:40.843Z,20.0
2022-08-22T19:58:02.187Z,20.0
2022-08-22T20:08:02.096Z,20.1
2022-08-22T20:13:02.478Z,20.2
2022-08-22T20:23:03.162Z,20.2
2022-08-22T20:28:03.542Z,20.2
2022-08-22T20:38:06.645Z,20.2
2022-08-22T20:43:09.202Z,20.2
2022-08-22T20:48:04.979Z,20.2
2022-08-22T20:53:08.938Z,20.2
2022-08-22T20:58:07.992Z,20.2
2022-08-22T21:03:06.028Z,20.2
2022-08-22T21:13:06.886Z,20.1
2022-08-22T21:18:09.095Z,20.2
2022-08-22T21:23:07.492Z,20.2
2022-08-22T21:28:07.813Z,20.3
2022-08-22T21:30:39.165Z,20.3
2022-08-22T21:33:08.330Z,20.3
2022-08-22T21:43:08.870Z,20.4
2022-08-22T21:53:10.403Z,20.4
2022-08-22T21:58:09.914Z,20.3
2022-08-22T22:08:10.603Z,20.3
2022-08-22T22:13:10.997Z,20.3
2022-08-22T22:18:11.326Z,20.4
2022-08-22T22:23:11.981Z,20.4
2022-08-22T22:28:12.037Z,20.4
2022-08-22T22:33:12.403Z,20.4
2022-08-22T22:38:12.763Z,20.4
2022-08-22T22:43:13.134Z,20.4
2022-08-22T22:48:23.890Z,20.4
2022-08-22T22:53:19.374Z,20.4
2022-08-22T22:58:14.252Z,20.4
2022-08-22T23:03:14.581Z,20.3
2022-08-22T23:08:14.963Z,20.3
2022-08-22T23:13:15.329Z,20.3
2022-08-22T23:18:16.321Z,20.3
2022-08-22T23:23:16.120Z,20.3
2022-08-22T23:28:16.563Z,20.3
2022-08-22T23:33:16.806Z,20.2
2022-08-22T23:38:17.173Z,20.2
2022-08-22T23:43:17.963Z,20.2
2022-08-22T23:48:17.845Z,20.1
2022-08-22T23:53:18.493Z,20.1
2022-08-22T23:58:18.548Z,20.1
